Terminal Aerodrome Forecast
Issued by NWS

Home | Current Version | Previous Version | Text Only | Print | Product List | Glossary On
Versions: 1 2 3 4 5 6 7 8 9 10 11 12 13 14 15 16 17
000
FTUS43 KMQT 241137
TAFCMX
TAF
KCMX 241137Z 2412/2512 27005KT P6SM SCT025
      TEMPO 2412/2414 BKN025
     FM241500 23003KT P6SM FEW150
     FM242100 10006KT P6SM BKN130
     FM250100 10011KT P6SM BKN090
     FM250500 11019G26KT 3SM -SN OVC045
     FM250600 11019G27KT 1 1/2SM -SN OVC030
     FM250900 09008KT 3/4SM -SN OVC008=

USA.gov is the U.S. government's official web portal to all federal, state and local government web resources and services.